createdAt,value
2023-04-04T00:02:38.926Z,4.38
2023-04-04T00:07:41.466Z,4.57
2023-04-04T00:12:44.237Z,4.05
2023-04-04T00:17:46.834Z,3.57
2023-04-04T00:22:49.320Z,9.32
2023-04-04T00:27:51.817Z,5.15
2023-04-04T00:32:54.411Z,4.70
2023-04-04T00:37:57.101Z,20.13
2023-04-04T00:43:00.698Z,38.33
2023-04-04T00:48:03.493Z,49.72
2023-04-04T00:53:06.327Z,23.23
2023-04-04T00:58:09.177Z,12.90
2023-04-04T01:03:13.024Z,6.20
2023-04-04T01:08:21.795Z,7.15
2023-04-04T01:13:24.425Z,6.82
2023-04-04T01:18:29.515Z,19.40
2023-04-04T01:23:40.041Z,11.68
2023-04-04T01:28:42.597Z,23.15
2023-04-04T01:33:58.891Z,7.45
2023-04-04T01:39:13.320Z,9.23
2023-04-04T01:44:19.285Z,4.10
2023-04-04T01:49:23.722Z,7.45
2023-04-04T01:54:28.427Z,5.43
2023-04-04T01:59:33.233Z,6.15
2023-04-04T02:04:35.737Z,8.07
2023-04-04T02:09:38.560Z,4.78
2023-04-04T02:14:41.451Z,4.43
2023-04-04T02:19:44.082Z,4.43
2023-04-04T02:24:47.702Z,4.03
2023-04-04T02:29:51.292Z,4.45
2023-04-04T02:39:57.710Z,4.20
2023-04-04T02:45:01.401Z,4.75
2023-04-04T02:50:04.987Z,5.53
2023-04-04T02:55:08.761Z,6.05
2023-04-04T03:00:15.535Z,4.60
2023-04-04T03:05:19.081Z,4.90
2023-04-04T03:10:22.767Z,6.25
2023-04-04T03:20:29.593Z,3.92
2023-04-04T03:25:32.122Z,3.90
2023-04-04T03:30:38.228Z,3.67
2023-04-04T03:35:41.325Z,4.65
2023-04-04T03:40:44.425Z,3.30
2023-04-04T03:45:49.453Z,4.30
2023-04-04T03:50:51.942Z,4.90
2023-04-04T03:55:56.456Z,5.50
2023-04-04T04:00:58.947Z,5.30
2023-04-04T04:06:04.631Z,5.78
2023-04-04T04:11:08.749Z,5.45
2023-04-04T04:16:11.693Z,5.47
2023-04-04T04:21:14.275Z,6.20
2023-04-04T04:26:18.288Z,5.40
2023-04-04T04:31:23.844Z,28.08
2023-04-04T04:36:27.979Z,6.72
2023-04-04T04:41:54.147Z,6.20
2023-04-04T04:46:59.045Z,5.03
2023-04-04T04:52:02.868Z,5.93
2023-04-04T04:57:07.422Z,8.45
2023-04-04T05:02:13.170Z,8.98
2023-04-04T05:07:22.686Z,11.35
2023-04-04T05:12:25.586Z,32.60
2023-04-04T05:17:28.777Z,12.48
2023-04-04T05:22:45.309Z,9.50
2023-04-04T05:27:50.549Z,7.53
2023-04-04T05:32:56.610Z,7.18
2023-04-04T05:38:04.234Z,7.32
2023-04-04T05:43:09.956Z,5.90
2023-04-04T05:48:23.931Z,6.07
2023-04-04T05:53:28.733Z,12.60
2023-04-04T05:58:32.160Z,7.35
2023-04-04T06:03:36.434Z,6.70
2023-04-04T06:08:53.036Z,5.70
2023-04-04T06:13:56.269Z,4.93
2023-04-04T06:19:00.287Z,5.80
2023-04-04T06:24:02.808Z,5.85
2023-04-04T06:29:05.354Z,7.07
2023-04-04T06:34:12.146Z,22.60
2023-04-04T06:39:27.566Z,7.35
2023-04-04T06:44:34.141Z,5.57
2023-04-04T06:49:38.263Z,5.38
2023-04-04T06:54:40.754Z,6.88
2023-04-04T06:59:45.196Z,7.10
2023-04-04T07:04:49.616Z,6.15
2023-04-04T07:09:52.206Z,5.75
2023-04-04T07:14:54.735Z,8.15
2023-04-04T07:19:57.156Z,3.90
2023-04-04T07:24:59.615Z,2.70
2023-04-04T07:30:02.557Z,2.20
2023-04-04T07:35:08.531Z,3.67
2023-04-04T07:40:12.098Z,4.25
2023-04-04T07:50:18.332Z,11.15
2023-04-04T07:55:20.906Z,3.08
2023-04-04T08:00:26.102Z,8.23
2023-04-04T08:05:28.890Z,5.85
2023-04-04T08:10:31.729Z,3.25
2023-04-04T08:15:34.421Z,5.63
2023-04-04T08:20:37.200Z,9.35
2023-04-04T08:25:39.774Z,14.33
2023-04-04T08:30:42.206Z,13.10
2023-04-04T08:35:44.876Z,8.63
2023-04-04T08:40:48.185Z,7.20
2023-04-04T08:45:51.229Z,4.70
2023-04-04T08:50:58.028Z,8.63
2023-04-04T08:56:00.657Z,6.07
2023-04-04T09:01:03.137Z,2.67
2023-04-04T09:06:07.418Z,3.63
2023-04-04T09:11:10.624Z,14.18
2023-04-04T09:16:13.881Z,4.93
2023-04-04T09:21:16.437Z,2.93
2023-04-04T09:26:19.192Z,6.20
2023-04-04T09:31:21.896Z,5.00
2023-04-04T09:36:27.278Z,17.00
2023-04-04T09:41:30.194Z,89.57
2023-04-04T09:46:37.417Z,32.55
2023-04-04T09:51:42.676Z,4.40
2023-04-04T09:56:46.128Z,7.55
2023-04-04T10:01:51.392Z,6.28
2023-04-04T10:06:54.120Z,4.93
2023-04-04T10:12:12.089Z,7.90
2023-04-04T10:17:15.037Z,6.30
2023-04-04T10:22:18.039Z,11.50
2023-04-04T10:27:20.916Z,11.15
2023-04-04T10:32:33.146Z,4.60
2023-04-04T10:37:38.761Z,3.58
2023-04-04T10:42:47.091Z,8.85
2023-04-04T10:47:50.895Z,12.23
2023-04-04T10:52:58.660Z,8.15
2023-04-04T10:58:04.301Z,7.85
2023-04-04T11:03:06.880Z,5.93
2023-04-04T11:08:11.209Z,11.83
2023-04-04T11:13:25.403Z,8.63
2023-04-04T11:18:49.212Z,4.43
2023-04-04T11:23:52.183Z,3.20
2023-04-04T11:28:59.836Z,3.60
2023-04-04T11:34:09.183Z,5.50
2023-04-04T11:39:15.899Z,4.30
2023-04-04T11:44:19.219Z,2.35
2023-04-04T11:49:25.888Z,4.68
2023-04-04T11:54:32.936Z,4.88
2023-04-04T11:59:40.881Z,4.53
2023-04-04T12:04:46.375Z,3.78
2023-04-04T12:09:48.966Z,5.03
2023-04-04T12:14:51.487Z,4.10
2023-04-04T12:19:54.122Z,3.67
2023-04-04T12:24:58.355Z,4.90
2023-04-04T12:30:01.380Z,3.50
2023-04-04T12:35:05.570Z,6.07
2023-04-04T12:40:10.938Z,22.85
2023-04-04T12:45:13.497Z,8.70
2023-04-04T12:50:22.661Z,4.55
2023-04-04T12:55:25.183Z,5.93
2023-04-04T13:00:29.803Z,6.63
2023-04-04T13:05:35.941Z,5.38
2023-04-04T13:11:02.579Z,8.18
2023-04-04T13:16:08.111Z,4.10
2023-04-04T13:21:12.478Z,3.85
2023-04-04T13:26:15.270Z,6.78
2023-04-04T13:31:17.859Z,6.37
2023-04-04T13:36:20.568Z,5.60
2023-04-04T13:41:23.024Z,5.20
2023-04-04T13:46:25.593Z,4.30
2023-04-04T13:51:28.257Z,5.75
2023-04-04T13:56:30.749Z,6.72
2023-04-04T14:01:33.576Z,7.05
2023-04-04T14:06:36.195Z,4.43
2023-04-04T14:11:38.710Z,6.38
2023-04-04T14:16:41.454Z,7.50
2023-04-04T14:21:43.931Z,6.07
2023-04-04T14:26:46.663Z,5.53
2023-04-04T14:31:49.267Z,7.93
2023-04-04T14:36:51.954Z,9.43
2023-04-04T14:41:54.473Z,8.52
2023-04-04T14:46:57.238Z,12.05
2023-04-04T14:52:00.515Z,5.35
2023-04-04T14:57:03.637Z,6.65
2023-04-04T15:02:06.396Z,6.57
2023-04-04T15:07:09.574Z,7.67
2023-04-04T15:12:12.254Z,7.38
2023-04-04T15:17:15.816Z,9.57
2023-04-04T15:22:18.717Z,6.40
2023-04-04T15:27:21.220Z,8.67
2023-04-04T15:32:25.724Z,10.15
2023-04-04T15:37:28.460Z,8.53
2023-04-04T15:42:32.029Z,10.40
2023-04-04T15:47:34.989Z,12.32
2023-04-04T15:52:38.173Z,10.98
2023-04-04T15:57:40.823Z,10.65
2023-04-04T16:02:43.729Z,9.20
2023-04-04T16:07:46.846Z,35.30
2023-04-04T16:12:49.359Z,7.45
2023-04-04T16:17:53.986Z,10.40
2023-04-04T16:22:56.807Z,23.25
2023-04-04T16:27:59.224Z,22.45
2023-04-04T16:33:01.786Z,13.85
2023-04-04T16:38:04.335Z,15.82
2023-04-04T16:43:06.746Z,6.30
2023-04-04T16:48:09.395Z,11.18
2023-04-04T16:53:12.125Z,12.07
2023-04-04T16:58:14.658Z,14.93
2023-04-04T17:03:17.433Z,9.25
2023-04-04T17:08:20.449Z,8.57
2023-04-04T17:13:23.393Z,10.13
2023-04-04T17:18:26.732Z,14.27
2023-04-04T17:23:30.935Z,27.05
2023-04-04T17:28:33.454Z,21.38
2023-04-04T17:33:36.402Z,25.00
2023-04-04T17:38:41.870Z,24.73
2023-04-04T17:43:44.405Z,27.33
2023-04-04T17:48:46.886Z,58.30
2023-04-04T17:53:52.422Z,40.53
2023-04-04T17:58:55.949Z,35.00
2023-04-04T18:04:06.404Z,18.23
2023-04-04T18:09:10.635Z,11.25
2023-04-04T18:14:14.452Z,7.50
2023-04-04T18:19:16.986Z,8.02
2023-04-04T18:24:21.700Z,18.23
2023-04-04T18:29:25.969Z,20.27
2023-04-04T18:34:28.571Z,16.75
2023-04-04T18:39:31.260Z,16.50
2023-04-04T18:44:34.326Z,16.50
2023-04-04T18:49:37.170Z,14.18
2023-04-04T18:54:40.020Z,26.20
2023-04-04T18:59:42.707Z,26.83
2023-04-04T19:04:46.853Z,30.88
2023-04-04T19:10:05.450Z,21.45
2023-04-04T19:15:08.158Z,20.15
2023-04-04T19:20:14.446Z,18.57
2023-04-04T19:25:20.518Z,53.00
2023-04-04T19:30:44.543Z,23.90
2023-04-04T19:36:10.191Z,18.10
2023-04-04T19:41:16.788Z,15.07
2023-04-04T19:46:27.053Z,23.98
2023-04-04T19:51:29.896Z,17.65
2023-04-04T19:56:32.599Z,14.20
2023-04-04T20:01:35.228Z,13.95
2023-04-04T20:06:38.974Z,15.95
2023-04-04T20:11:42.444Z,18.85
2023-04-04T20:16:45.051Z,19.38
2023-04-04T20:21:48.856Z,17.90
2023-04-04T20:26:55.686Z,15.90
2023-04-04T20:32:00.411Z,20.33
2023-04-04T20:37:06.453Z,19.60
2023-04-04T20:42:17.443Z,42.03
2023-04-04T20:47:47.532Z,24.42
2023-04-04T20:52:51.300Z,23.67
2023-04-04T20:57:56.504Z,21.70
2023-04-04T21:03:10.153Z,20.67
2023-04-04T21:08:24.756Z,17.63
2023-04-04T21:13:29.325Z,17.83
2023-04-04T21:18:33.035Z,12.60
2023-04-04T21:28:44.371Z,42.75
2023-04-04T21:33:49.618Z,32.03
2023-04-04T21:38:53.606Z,38.85
2023-04-04T21:43:57.739Z,54.13
2023-04-04T21:49:00.640Z,43.10
2023-04-04T21:54:03.938Z,17.40
2023-04-04T21:59:08.474Z,11.70
2023-04-04T22:04:13.198Z,14.82
2023-04-04T22:09:16.102Z,14.55
2023-04-04T22:14:18.685Z,12.87
2023-04-04T22:19:23.668Z,13.95
2023-04-04T22:24:26.399Z,11.60
2023-04-04T22:29:28.905Z,10.05
2023-04-04T22:34:31.540Z,9.15
2023-04-04T22:39:34.926Z,9.35
2023-04-04T22:44:37.479Z,9.73
2023-04-04T22:49:48.703Z,10.20
2023-04-04T22:54:51.208Z,13.80
2023-04-04T22:59:54.073Z,19.20
2023-04-04T23:04:58.687Z,32.60
2023-04-04T23:10:01.160Z,20.77
2023-04-04T23:15:04.434Z,11.88
2023-04-04T23:20:10.524Z,32.47
2023-04-04T23:25:13.206Z,34.45
2023-04-04T23:30:15.700Z,35.58
2023-04-04T23:35:18.403Z,56.08
2023-04-04T23:40:21.144Z,41.60
2023-04-04T23:45:24.847Z,31.23
2023-04-04T23:50:27.489Z,24.70
2023-04-04T23:55:29.985Z,33.85
